createdAt,value
2022-10-22T00:00:16.486Z,95.92
2022-10-22T00:02:45.674Z,95.75
2022-10-22T00:05:13.412Z,95.94
2022-10-22T00:07:41.420Z,95.93
2022-10-22T00:10:09.845Z,95.76
2022-10-22T00:12:37.655Z,95.84
2022-10-22T00:15:06.677Z,95.95
2022-10-22T00:17:34.339Z,95.63
2022-10-22T00:20:03.931Z,95.91
2022-10-22T00:22:31.637Z,95.51
2022-10-22T00:24:59.250Z,95.74
2022-10-22T00:27:26.902Z,95.72
2022-10-22T00:29:54.524Z,96.25
2022-10-22T00:32:22.283Z,96.24
2022-10-22T00:34:49.939Z,96.23
2022-10-22T00:37:18.948Z,96.60
2022-10-22T00:39:46.613Z,96.64
2022-10-22T00:42:20.527Z,96.69
2022-10-22T00:45:17.309Z,96.79
2022-10-22T00:47:50.064Z,96.75
2022-10-22T00:50:22.763Z,96.76
2022-10-22T00:52:52.519Z,96.82
2022-10-22T00:55:21.720Z,97.09
2022-10-22T00:57:50.041Z,97.05
2022-10-22T01:00:18.449Z,96.71
2022-10-22T01:02:46.510Z,97.13
2022-10-22T01:05:14.681Z,97.10
2022-10-22T01:07:45.632Z,96.97
2022-10-22T01:10:25.752Z,97.06
2022-10-22T01:13:06.696Z,97.15
2022-10-22T01:15:44.007Z,97.13
2022-10-22T01:18:19.659Z,97.11
2022-10-22T01:21:02.432Z,97.11
2022-10-22T01:24:05.868Z,97.21
2022-10-22T01:26:47.746Z,97.38
2022-10-22T01:29:20.251Z,97.48
2022-10-22T01:31:52.638Z,97.58
2022-10-22T01:34:20.585Z,97.73
2022-10-22T01:36:49.409Z,98.58
2022-10-22T01:39:18.387Z,98.60
2022-10-22T01:41:46.452Z,98.66
2022-10-22T01:44:39.259Z,98.55
2022-10-22T01:47:14.634Z,98.82
2022-10-22T01:50:03.491Z,98.56
2022-10-22T01:52:45.873Z,98.78
2022-10-22T01:55:26.398Z,99.21
2022-10-22T01:58:04.335Z,99.34
2022-10-22T02:00:33.604Z,99.34
2022-10-22T02:03:06.381Z,99.45
2022-10-22T02:05:40.963Z,99.51
2022-10-22T02:08:11.772Z,99.44
2022-10-22T02:10:41.347Z,99.44
2022-10-22T02:13:13.193Z,99.13
2022-10-22T02:15:47.480Z,99.16
2022-10-22T02:18:17.669Z,99.35
2022-10-22T02:20:45.534Z,99.33
2022-10-22T02:23:13.499Z,99.71
2022-10-22T02:25:45.051Z,99.37
2022-10-22T02:28:17.425Z,99.38
2022-10-22T02:30:49.515Z,99.65
2022-10-22T02:33:21.533Z,100.00
2022-10-22T02:35:52.382Z,100.00
2022-10-22T02:38:20.738Z,100.00
2022-10-22T02:40:48.404Z,100.00
2022-10-22T02:43:16.094Z,100.00
2022-10-22T02:45:43.939Z,100.00
2022-10-22T02:48:13.009Z,100.00
2022-10-22T02:50:40.663Z,100.00
2022-10-22T02:53:08.310Z,100.00
2022-10-22T02:55:36.395Z,100.00
2022-10-22T02:58:04.062Z,100.00
2022-10-22T03:00:31.929Z,100.00
2022-10-22T03:02:59.600Z,100.00
2022-10-22T03:05:28.631Z,100.00
2022-10-22T03:07:56.251Z,100.00
2022-10-22T03:10:23.867Z,100.00
2022-10-22T03:12:51.482Z,100.00
2022-10-22T03:15:19.176Z,100.00
2022-10-22T03:17:46.856Z,100.00
2022-10-22T03:20:14.689Z,100.00
2022-10-22T03:22:44.667Z,100.00
2022-10-22T03:25:17.474Z,100.00
2022-10-22T03:27:45.577Z,100.00
2022-10-22T03:30:13.784Z,100.00
2022-10-22T03:32:41.377Z,100.00
2022-10-22T03:35:09.521Z,100.00
2022-10-22T03:37:38.025Z,100.00
2022-10-22T03:40:09.479Z,100.00
2022-10-22T03:42:37.117Z,100.00
2022-10-22T03:45:05.464Z,100.00
2022-10-22T03:47:33.057Z,100.00
2022-10-22T03:50:00.741Z,100.00
2022-10-22T03:52:28.405Z,100.00
2022-10-22T03:54:56.018Z,100.00
2022-10-22T03:57:25.462Z,100.00
2022-10-22T03:59:53.179Z,100.00
2022-10-22T04:02:20.837Z,100.00
2022-10-22T04:04:48.452Z,100.00
2022-10-22T04:07:16.155Z,100.00
2022-10-22T04:09:43.825Z,100.00
2022-10-22T04:12:11.521Z,100.00
2022-10-22T04:14:40.541Z,100.00
2022-10-22T04:17:08.281Z,100.00
2022-10-22T04:19:35.977Z,100.00
2022-10-22T04:22:03.604Z,100.00
2022-10-22T04:24:32.478Z,100.00
2022-10-22T04:27:00.222Z,100.00
2022-10-22T04:29:28.018Z,100.00
2022-10-22T04:31:57.081Z,100.00
2022-10-22T04:34:27.547Z,100.00
2022-10-22T04:36:55.202Z,100.00
2022-10-22T04:39:22.854Z,100.00
2022-10-22T04:41:50.588Z,100.00
2022-10-22T04:44:18.394Z,100.00
2022-10-22T04:46:46.622Z,100.00
2022-10-22T04:49:15.609Z,100.00
2022-10-22T04:51:43.336Z,100.00
2022-10-22T04:54:10.997Z,100.00
2022-10-22T04:56:38.711Z,100.00
2022-10-22T04:59:09.096Z,100.00
2022-10-22T05:01:42.596Z,100.00
2022-10-22T05:04:13.532Z,100.00
2022-10-22T05:06:42.672Z,100.00
2022-10-22T05:09:14.862Z,100.00
2022-10-22T05:11:45.535Z,100.00
2022-10-22T05:14:13.579Z,100.00
2022-10-22T05:16:41.296Z,100.00
2022-10-22T05:19:09.389Z,100.00
2022-10-22T05:21:38.687Z,100.00
2022-10-22T05:24:08.648Z,100.00
2022-10-22T05:26:36.271Z,100.00
2022-10-22T05:29:03.972Z,100.00
2022-10-22T05:31:31.669Z,100.00
2022-10-22T05:33:59.434Z,100.00
2022-10-22T05:36:27.162Z,100.00
2022-10-22T05:38:55.261Z,100.00
2022-10-22T05:41:25.650Z,100.00
2022-10-22T05:43:55.928Z,100.00
2022-10-22T05:46:25.370Z,100.00
2022-10-22T05:48:54.289Z,100.00
2022-10-22T05:51:22.515Z,100.00
2022-10-22T05:53:54.307Z,100.00
2022-10-22T05:56:23.787Z,100.00
2022-10-22T05:58:51.996Z,100.00
2022-10-22T06:01:22.016Z,100.00
2022-10-22T06:03:50.635Z,100.00
2022-10-22T06:06:21.773Z,100.00
2022-10-22T06:08:50.760Z,100.00
2022-10-22T06:11:20.396Z,100.00
2022-10-22T06:13:50.759Z,100.00
2022-10-22T06:16:18.956Z,100.00
2022-10-22T06:18:46.708Z,100.00
2022-10-22T06:21:16.771Z,100.00
2022-10-22T06:23:44.927Z,100.00
2022-10-22T06:26:13.075Z,100.00
2022-10-22T06:28:40.760Z,99.92
2022-10-22T06:31:11.026Z,100.00
2022-10-22T06:33:42.377Z,99.59
2022-10-22T06:36:12.436Z,99.45
2022-10-22T06:38:40.601Z,99.15
2022-10-22T06:41:10.075Z,98.90
2022-10-22T06:43:37.770Z,98.79
2022-10-22T06:46:09.596Z,98.78
2022-10-22T06:48:40.157Z,98.63
2022-10-22T06:51:11.170Z,98.27
2022-10-22T06:53:40.235Z,97.90
2022-10-22T06:56:08.805Z,97.08
2022-10-22T06:58:36.539Z,96.89
2022-10-22T07:01:04.668Z,96.40
2022-10-22T07:03:32.386Z,95.68
2022-10-22T07:06:02.828Z,95.23
2022-10-22T07:08:30.956Z,94.30
2022-10-22T07:11:07.034Z,94.00
2022-10-22T07:13:34.710Z,93.20
2022-10-22T07:16:02.675Z,93.20
2022-10-22T07:18:31.008Z,92.69
2022-10-22T07:21:02.131Z,91.85
2022-10-22T07:23:31.389Z,91.29
2022-10-22T07:25:59.255Z,91.37
2022-10-22T07:28:27.964Z,90.62
2022-10-22T07:30:55.745Z,90.26
2022-10-22T07:33:23.394Z,89.96
2022-10-22T07:35:51.062Z,89.63
2022-10-22T07:38:18.768Z,88.93
2022-10-22T07:40:47.874Z,88.73
2022-10-22T07:43:15.565Z,88.31
2022-10-22T07:45:43.322Z,88.24
2022-10-22T07:48:10.997Z,87.93
2022-10-22T07:50:39.085Z,87.91
2022-10-22T07:53:06.823Z,87.39
2022-10-22T07:55:35.148Z,86.91
2022-10-22T07:58:04.306Z,86.89
2022-10-22T08:00:31.999Z,86.87
2022-10-22T08:02:59.747Z,86.64
2022-10-22T08:05:27.453Z,86.59
2022-10-22T08:07:55.163Z,86.70
2022-10-22T08:10:22.827Z,86.79
2022-10-22T08:12:50.481Z,86.97
2022-10-22T08:15:19.821Z,87.08
2022-10-22T08:17:47.504Z,86.42
2022-10-22T08:20:15.280Z,86.12
2022-10-22T08:22:42.977Z,86.01
2022-10-22T08:25:10.955Z,86.30
2022-10-22T08:27:39.094Z,85.46
2022-10-22T08:30:08.410Z,84.99
2022-10-22T08:32:37.774Z,84.72
2022-10-22T08:35:06.323Z,84.37
2022-10-22T08:37:34.046Z,84.18
2022-10-22T08:40:01.720Z,83.72
2022-10-22T08:42:44.344Z,83.84
2022-10-22T08:45:16.347Z,83.70
2022-10-22T08:48:10.319Z,84.03
2022-10-22T08:50:41.927Z,83.42
2022-10-22T08:53:14.904Z,83.57
2022-10-22T08:55:43.670Z,83.06
2022-10-22T08:58:20.293Z,82.92
2022-10-22T09:00:56.537Z,83.10
2022-10-22T09:03:37.826Z,82.39
2022-10-22T09:06:11.904Z,82.02
2022-10-22T09:08:41.405Z,82.49
2022-10-22T09:11:18.642Z,82.44
2022-10-22T09:13:48.068Z,82.48
2022-10-22T09:16:19.293Z,81.72
2022-10-22T09:19:01.284Z,81.12
2022-10-22T09:21:39.604Z,80.77
2022-10-22T09:24:13.186Z,80.58
2022-10-22T09:26:42.332Z,80.83
2022-10-22T09:29:18.342Z,80.12
2022-10-22T09:31:46.238Z,80.01
2022-10-22T09:34:20.725Z,79.79
2022-10-22T09:36:48.501Z,80.18
2022-10-22T09:39:25.134Z,80.18
2022-10-22T09:41:52.969Z,80.20
2022-10-22T09:44:21.695Z,80.28
2022-10-22T09:46:49.434Z,80.38
2022-10-22T09:49:20.739Z,79.74
2022-10-22T09:51:54.040Z,79.92
2022-10-22T09:54:24.530Z,79.82
2022-10-22T09:56:57.859Z,79.19
2022-10-22T09:59:29.938Z,78.89
2022-10-22T10:02:13.363Z,78.67
2022-10-22T10:04:50.854Z,78.81
2022-10-22T10:07:21.025Z,78.64
2022-10-22T10:09:49.156Z,78.49
2022-10-22T10:12:31.955Z,78.82
2022-10-22T10:15:08.571Z,78.50
2022-10-22T10:17:45.658Z,77.94
2022-10-22T10:20:28.884Z,76.69
2022-10-22T10:23:02.862Z,76.35
2022-10-22T10:25:40.995Z,76.05
2022-10-22T10:28:33.607Z,76.62
2022-10-22T10:31:14.130Z,75.99
2022-10-22T10:33:52.182Z,76.45
2022-10-22T10:36:32.787Z,76.13
2022-10-22T10:39:05.924Z,76.18
2022-10-22T10:41:45.913Z,75.62
2022-10-22T10:44:46.329Z,75.84
2022-10-22T10:47:26.810Z,75.17
2022-10-22T10:50:03.513Z,74.84
2022-10-22T10:52:43.105Z,75.04
2022-10-22T10:55:19.902Z,74.96
2022-10-22T10:58:01.965Z,74.17
2022-10-22T11:00:36.994Z,74.81
2022-10-22T11:03:35.721Z,74.78
2022-10-22T11:06:05.379Z,74.41
2022-10-22T11:08:37.561Z,73.65
2022-10-22T11:11:09.763Z,73.40
2022-10-22T11:13:42.086Z,73.36
2022-10-22T11:16:18.783Z,73.46
2022-10-22T11:18:52.998Z,73.22
2022-10-22T11:21:28.173Z,72.63
2022-10-22T11:24:05.011Z,72.74
2022-10-22T11:26:42.949Z,72.99
2022-10-22T11:29:14.005Z,72.87
2022-10-22T11:31:42.489Z,72.98
2022-10-22T11:34:33.303Z,72.62
2022-10-22T11:37:02.557Z,72.69
2022-10-22T11:39:39.738Z,73.31
2022-10-22T11:42:11.459Z,72.96
2022-10-22T11:45:01.534Z,72.38
2022-10-22T11:47:32.951Z,72.75
2022-10-22T11:50:17.960Z,72.97
2022-10-22T11:52:54.882Z,72.10
2022-10-22T11:55:34.327Z,72.46
2022-10-22T11:58:03.911Z,72.35
2022-10-22T12:00:40.798Z,72.23
2022-10-22T12:03:18.309Z,72.42
2022-10-22T12:05:46.698Z,71.57
2022-10-22T12:08:21.945Z,72.36
2022-10-22T12:11:05.129Z,72.99
2022-10-22T12:13:54.183Z,73.01
2022-10-22T12:16:32.273Z,72.60
2022-10-22T12:19:13.018Z,72.49
2022-10-22T12:21:43.664Z,72.50
2022-10-22T12:24:15.406Z,71.61
2022-10-22T12:26:45.944Z,72.08
2022-10-22T12:29:15.953Z,71.99
2022-10-22T12:31:45.803Z,71.03
2022-10-22T12:34:18.090Z,70.88
2022-10-22T12:36:47.745Z,70.64
2022-10-22T12:39:17.547Z,70.79
2022-10-22T12:41:47.536Z,70.28
2022-10-22T12:44:17.420Z,70.42
2022-10-22T12:46:47.340Z,69.16
2022-10-22T12:49:19.934Z,69.38
2022-10-22T12:51:48.626Z,69.53
2022-10-22T12:54:28.063Z,68.94
2022-10-22T12:56:58.533Z,69.51
2022-10-22T12:59:29.027Z,69.40
2022-10-22T13:01:57.491Z,69.37
2022-10-22T13:04:35.720Z,69.46
2022-10-22T13:07:19.840Z,69.22
2022-10-22T13:09:57.917Z,69.07
2022-10-22T13:12:31.391Z,69.52
2022-10-22T13:15:19.216Z,69.25
2022-10-22T13:17:48.716Z,69.37
2022-10-22T13:20:21.592Z,68.89
2022-10-22T13:23:00.045Z,69.02
2022-10-22T13:25:30.481Z,68.67
2022-10-22T13:28:01.787Z,68.75
2022-10-22T13:30:32.513Z,68.89
2022-10-22T13:33:02.555Z,69.24
2022-10-22T13:35:33.163Z,69.22
2022-10-22T13:38:01.991Z,68.77
2022-10-22T13:40:30.033Z,68.72
2022-10-22T13:43:01.484Z,67.95
2022-10-22T13:45:29.167Z,67.85
2022-10-22T13:47:57.044Z,67.92
2022-10-22T13:50:24.675Z,68.12
2022-10-22T13:52:54.287Z,68.02
2022-10-22T13:55:25.679Z,68.11
2022-10-22T13:57:56.214Z,68.37
2022-10-22T14:00:25.543Z,68.21
2022-10-22T14:02:55.714Z,68.13
2022-10-22T14:05:23.908Z,67.77
2022-10-22T14:07:52.337Z,68.36
2022-10-22T14:10:21.901Z,67.50
2022-10-22T14:12:52.555Z,67.53
2022-10-22T14:15:23.713Z,67.57
2022-10-22T14:17:55.104Z,67.70
2022-10-22T14:20:24.769Z,67.60
2022-10-22T14:22:52.846Z,67.80
2022-10-22T14:25:22.559Z,67.50
2022-10-22T14:27:50.925Z,68.00
2022-10-22T14:30:20.363Z,68.23
2022-10-22T14:32:48.810Z,67.47
2022-10-22T14:35:19.894Z,67.67
2022-10-22T14:37:47.993Z,68.10
2022-10-22T14:40:18.056Z,67.71
2022-10-22T14:42:47.552Z,68.13
2022-10-22T14:45:18.162Z,68.24
2022-10-22T14:47:45.908Z,67.92
2022-10-22T14:50:13.730Z,67.96
2022-10-22T14:52:43.933Z,67.65
2022-10-22T14:55:12.683Z,67.69
2022-10-22T14:57:41.283Z,67.80
2022-10-22T15:00:11.893Z,68.05
2022-10-22T15:02:39.905Z,68.26
2022-10-22T15:05:08.567Z,67.97
2022-10-22T15:07:36.857Z,68.34
2022-10-22T15:10:07.827Z,68.65
2022-10-22T15:12:35.691Z,68.31
2022-10-22T15:15:03.571Z,68.74
2022-10-22T15:17:31.253Z,68.95
2022-10-22T15:20:00.514Z,69.25
2022-10-22T15:22:28.521Z,69.12
2022-10-22T15:24:56.174Z,69.36
2022-10-22T15:27:25.823Z,68.84
2022-10-22T15:29:53.542Z,68.63
2022-10-22T15:32:21.283Z,68.68
2022-10-22T15:34:49.230Z,69.13
2022-10-22T15:37:16.894Z,69.08
2022-10-22T15:39:44.572Z,69.07
2022-10-22T15:42:12.246Z,69.60
2022-10-22T15:44:41.534Z,69.35
2022-10-22T15:47:09.606Z,69.78
2022-10-22T15:49:38.765Z,69.82
2022-10-22T15:52:07.305Z,69.98
2022-10-22T15:54:34.924Z,70.17
2022-10-22T15:57:03.860Z,70.07
2022-10-22T15:59:31.582Z,70.42
2022-10-22T16:02:00.627Z,70.67
2022-10-22T16:04:28.275Z,70.75
2022-10-22T16:06:57.808Z,71.12
2022-10-22T16:09:27.508Z,71.33
2022-10-22T16:11:56.207Z,71.45
2022-10-22T16:14:24.422Z,71.77
2022-10-22T16:16:55.370Z,71.93
2022-10-22T16:19:25.725Z,72.44
2022-10-22T16:21:55.474Z,72.73
2022-10-22T16:24:23.495Z,72.90
2022-10-22T16:26:52.609Z,73.31
2022-10-22T16:29:20.241Z,73.47
2022-10-22T16:31:47.999Z,73.99
2022-10-22T16:34:15.621Z,74.13
2022-10-22T16:36:45.217Z,74.15
2022-10-22T16:39:12.935Z,74.47
2022-10-22T16:41:40.618Z,74.76
2022-10-22T16:44:08.991Z,75.02
2022-10-22T16:46:38.439Z,75.40
2022-10-22T16:49:07.322Z,75.61
2022-10-22T16:51:35.528Z,75.59
2022-10-22T16:54:08.157Z,75.99
2022-10-22T16:56:39.087Z,76.32
2022-10-22T16:59:07.668Z,76.54
2022-10-22T17:01:40.335Z,76.84
2022-10-22T17:04:09.129Z,77.19
2022-10-22T17:06:36.836Z,77.08
2022-10-22T17:09:06.087Z,77.37
2022-10-22T17:11:36.341Z,77.63
2022-10-22T17:14:05.787Z,77.82
2022-10-22T17:16:33.534Z,77.97
2022-10-22T17:19:04.742Z,78.32
2022-10-22T17:21:32.395Z,78.55
2022-10-22T17:24:00.198Z,78.39
2022-10-22T17:26:30.375Z,78.73
2022-10-22T17:28:58.414Z,78.83
2022-10-22T17:31:27.910Z,79.02
2022-10-22T17:33:57.178Z,79.47
2022-10-22T17:36:26.162Z,79.51
2022-10-22T17:38:57.074Z,79.76
2022-10-22T17:41:27.101Z,79.86
2022-10-22T17:43:56.855Z,79.95
2022-10-22T17:46:26.447Z,79.93
2022-10-22T17:48:55.825Z,79.91
2022-10-22T17:51:25.434Z,80.22
2022-10-22T17:53:53.288Z,80.06
2022-10-22T17:56:23.121Z,79.98
2022-10-22T17:58:51.421Z,80.18
2022-10-22T18:01:23.953Z,80.04
2022-10-22T18:03:52.637Z,80.19
2022-10-22T18:06:20.351Z,80.41
2022-10-22T18:08:48.130Z,80.38
2022-10-22T18:11:19.150Z,80.56
2022-10-22T18:13:50.052Z,80.56
2022-10-22T18:16:18.729Z,80.79
2022-10-22T18:18:48.516Z,80.90
2022-10-22T18:21:17.298Z,81.00
2022-10-22T18:23:45.724Z,81.01
2022-10-22T18:26:13.701Z,81.14
2022-10-22T18:28:41.587Z,81.19
2022-10-22T18:31:11.344Z,81.35
2022-10-22T18:33:39.082Z,81.28
2022-10-22T18:36:10.785Z,81.52
2022-10-22T18:38:39.367Z,81.99
2022-10-22T18:41:07.844Z,81.92
2022-10-22T18:43:36.420Z,82.23
2022-10-22T18:46:07.371Z,82.29
2022-10-22T18:48:36.310Z,82.64
2022-10-22T18:51:06.342Z,82.49
2022-10-22T18:53:36.013Z,82.98
2022-10-22T18:56:06.771Z,82.96
2022-10-22T18:58:38.638Z,82.96
2022-10-22T19:01:10.418Z,83.17
2022-10-22T19:03:38.128Z,83.53
2022-10-22T19:06:06.228Z,83.39
2022-10-22T19:08:38.363Z,83.54
2022-10-22T19:11:10.943Z,83.87
2022-10-22T19:13:38.835Z,83.79
2022-10-22T19:16:08.170Z,83.88
2022-10-22T19:18:38.420Z,83.97
2022-10-22T19:21:06.721Z,83.96
2022-10-22T19:23:35.815Z,83.99
2022-10-22T19:26:05.491Z,83.99
2022-10-22T19:28:33.522Z,84.24
2022-10-22T19:31:01.165Z,84.54
2022-10-22T19:33:29.006Z,84.28
2022-10-22T19:35:56.664Z,84.47
2022-10-22T19:38:29.567Z,84.76
2022-10-22T19:40:58.668Z,84.61
2022-10-22T19:43:26.485Z,85.00
2022-10-22T19:45:54.174Z,85.01
2022-10-22T19:48:21.839Z,85.26
2022-10-22T19:50:49.525Z,85.22
2022-10-22T19:53:17.214Z,85.24
2022-10-22T19:55:45.241Z,85.45
2022-10-22T19:58:15.739Z,85.38
2022-10-22T20:00:43.457Z,85.21
2022-10-22T20:03:15.189Z,85.49
2022-10-22T20:05:43.644Z,85.65
2022-10-22T20:08:12.322Z,85.70
2022-10-22T20:10:40.255Z,85.88
2022-10-22T20:13:07.947Z,85.83
2022-10-22T20:15:37.358Z,86.01
2022-10-22T20:18:05.363Z,86.26
2022-10-22T20:20:33.016Z,86.11
2022-10-22T20:23:00.810Z,86.21
2022-10-22T20:25:28.456Z,86.42
2022-10-22T20:27:56.116Z,86.35
2022-10-22T20:30:23.827Z,86.06
2022-10-22T20:32:52.861Z,86.65
2022-10-22T20:35:20.505Z,86.56
2022-10-22T20:37:48.149Z,86.38
2022-10-22T20:40:15.843Z,86.39
2022-10-22T20:42:44.005Z,86.57
2022-10-22T20:45:11.998Z,86.50
2022-10-22T20:47:51.231Z,86.47
2022-10-22T20:50:21.800Z,86.66
2022-10-22T20:52:49.479Z,86.67
2022-10-22T20:55:17.531Z,86.88
2022-10-22T20:57:45.395Z,87.11
2022-10-22T21:00:14.221Z,86.79
2022-10-22T21:02:41.986Z,87.04
2022-10-22T21:05:10.368Z,86.85
2022-10-22T21:07:39.660Z,86.93
2022-10-22T21:10:08.526Z,87.29
2022-10-22T21:12:36.297Z,87.21
2022-10-22T21:15:07.783Z,87.36
2022-10-22T21:17:38.021Z,87.24
2022-10-22T21:20:06.693Z,87.29
2022-10-22T21:22:34.465Z,87.18
2022-10-22T21:25:04.009Z,87.29
2022-10-22T21:27:31.768Z,87.32
2022-10-22T21:29:59.504Z,87.48
2022-10-22T21:32:28.403Z,87.54
2022-10-22T21:34:56.224Z,87.79
2022-10-22T21:37:24.164Z,87.63
2022-10-22T21:39:51.848Z,87.66
2022-10-22T21:42:20.966Z,87.55
2022-10-22T21:44:51.423Z,87.77
2022-10-22T21:47:19.106Z,88.08
2022-10-22T21:49:46.849Z,88.16
2022-10-22T21:52:14.548Z,88.35
2022-10-22T21:54:42.197Z,88.60
2022-10-22T21:57:09.829Z,88.69
2022-10-22T21:59:39.144Z,88.49
2022-10-22T22:02:06.843Z,88.46
2022-10-22T22:04:34.608Z,88.58
2022-10-22T22:07:02.266Z,88.49
2022-10-22T22:09:29.992Z,88.34
2022-10-22T22:11:57.660Z,88.46
2022-10-22T22:14:25.309Z,88.69
2022-10-22T22:16:54.359Z,88.68
2022-10-22T22:19:22.017Z,88.64
2022-10-22T22:21:52.292Z,88.54
2022-10-22T22:24:19.986Z,88.62
2022-10-22T22:26:47.674Z,88.84
2022-10-22T22:29:15.339Z,89.10
2022-10-22T22:31:43.522Z,88.98
2022-10-22T22:34:14.798Z,89.38
2022-10-22T22:36:45.369Z,89.27
2022-10-22T22:39:15.199Z,89.03
2022-10-22T22:41:43.794Z,88.87
2022-10-22T22:44:11.760Z,89.26
2022-10-22T22:46:39.869Z,89.26
2022-10-22T22:49:07.585Z,89.33
2022-10-22T22:51:36.879Z,89.19
2022-10-22T22:54:04.831Z,89.44
2022-10-22T22:56:34.939Z,89.51
2022-10-22T22:59:03.404Z,89.67
2022-10-22T23:01:33.092Z,89.71
2022-10-22T23:04:03.238Z,90.03
2022-10-22T23:06:33.153Z,89.72
2022-10-22T23:09:02.325Z,90.03
2022-10-22T23:11:30.091Z,90.24
2022-10-22T23:13:59.833Z,90.09
2022-10-22T23:16:29.596Z,90.35
2022-10-22T23:18:57.909Z,90.28
2022-10-22T23:21:28.992Z,90.51
2022-10-22T23:23:59.389Z,90.61
2022-10-22T23:26:30.802Z,90.56
2022-10-22T23:29:01.317Z,90.61
2022-10-22T23:31:29.000Z,90.71
2022-10-22T23:33:56.677Z,91.11
2022-10-22T23:36:24.392Z,91.21
2022-10-22T23:38:52.322Z,91.35
2022-10-22T23:41:19.923Z,91.72
2022-10-22T23:43:48.933Z,91.57
2022-10-22T23:46:16.543Z,91.40
2022-10-22T23:48:44.194Z,91.81
2022-10-22T23:51:13.680Z,91.71
2022-10-22T23:53:42.559Z,91.93
2022-10-22T23:56:14.238Z,91.91
2022-10-22T23:58:42.790Z,92.12
